Time;durP1;ratioP1;P1;durP2;ratioP2;P2;SDS_P1;SDS_P2;PMS_P1;PMS_P2;Temp;Humidity;BMP_temperature;BMP_pressure;BME280_temperature;BME280_humidity;BME280_pressure;Samples;Min_cycle;Max_cycle;Signal;HPM_P1;HPM_P2
2022/03/20 00:00:13;;;;;;;;;5.25;4.25;;;;;8.46;34.99;101884.06;5036654;28;45390;-83
2022/03/20 00:02:39;;;;;;;;;3.75;2.00;;;;;8.44;35.70;101888.44;5038944;28;45420;-83
2022/03/20 00:05:05;;;;;;;;;5.00;5.00;;;;;8.40;35.60;101869.03;5039172;28;45576;-82
2022/03/20 00:07:34;;;;;;;;;7.00;2.00;;;;;8.35;35.37;101878.63;5039644;28;45518;-84
2022/03/20 00:10:01;;;;;;;;;0.00;0.00;;;;;8.33;34.91;101877.75;5045025;28;45427;-83
2022/03/20 00:12:27;;;;;;;;;3.25;2.25;;;;;8.31;35.45;101875.09;5067952;28;44871;-83
2022/03/20 00:14:52;;;;;;;;;5.25;4.25;;;;;8.29;35.68;101871.59;5050181;28;45468;-82
2022/03/20 00:17:20;;;;;;;;;4.00;4.00;;;;;8.22;34.92;101868.88;5042472;28;45390;-83
2022/03/20 00:19:46;;;;;;;;;8.00;4.00;;;;;8.19;35.48;101870.59;5020851;28;45537;-84
2022/03/20 00:22:12;;;;;;;;;2.00;2.00;;;;;8.17;35.01;101864.44;5034978;28;45643;-83
2022/03/20 00:24:40;;;;;;;;;1.75;1.00;;;;;8.18;35.13;101867.94;5038709;28;46020;-83
2022/03/20 00:27:07;;;;;;;;;1.75;1.75;;;;;8.16;35.61;101860.03;5038406;28;45464;-84
2022/03/20 00:29:33;;;;;;;;;2.50;2.50;;;;;8.14;36.01;101866.16;5022517;28;45429;-83
2022/03/20 00:31:58;;;;;;;;;3.50;2.00;;;;;8.14;35.59;101871.44;5034076;28;45387;-83
2022/03/20 00:34:24;;;;;;;;;3.50;2.00;;;;;8.07;35.47;101867.81;5061746;28;45530;-82
2022/03/20 00:36:49;;;;;;;;;8.00;5.00;;;;;8.08;35.21;101871.38;5059262;28;45332;-82
2022/03/20 00:39:14;;;;;;;;;2.00;2.00;;;;;8.01;35.36;101876.53;5061452;28;45380;-82
2022/03/20 00:41:40;;;;;;;;;7.50;4.25;;;;;7.98;34.84;101860.69;5044567;28;45475;-82
2022/03/20 00:44:05;;;;;;;;;5.00;1.50;;;;;7.93;35.20;101861.53;5036921;28;45912;-81
2022/03/20 00:46:31;;;;;;;;;4.25;4.25;;;;;7.88;36.14;101864.13;5019620;28;45954;-81
2022/03/20 00:48:56;;;;;;;;;2.00;2.00;;;;;7.85;35.59;101864.09;5037660;28;45629;-83
2022/03/20 00:51:21;;;;;;;;;1.50;1.50;;;;;7.81;35.92;101852.63;5043598;28;45511;-82
2022/03/20 00:53:47;;;;;;;;;3.00;3.00;;;;;7.82;35.56;101857.03;5037239;28;45388;-82
2022/03/20 00:56:14;;;;;;;;;2.00;2.00;;;;;7.81;35.92;101852.63;5037528;28;45414;-83
2022/03/20 00:58:40;;;;;;;;;1.00;1.00;;;;;7.78;36.02;101854.34;5036646;28;45384;-82
2022/03/20 01:01:05;;;;;;;;;2.00;2.00;;;;;7.77;36.55;101853.47;5053080;28;45496;-81
2022/03/20 01:03:31;;;;;;;;;3.00;3.00;;;;;7.77;35.84;101852.56;5058824;28;45478;-82
2022/03/20 01:05:56;;;;;;;;;2.00;2.00;;;;;7.70;36.65;101850.72;5058294;28;45275;-82
2022/03/20 01:08:22;;;;;;;;;1.00;1.00;;;;;7.67;36.47;101851.59;5056261;28;45530;-82
2022/03/20 01:10:47;;;;;;;;;1.00;1.00;;;;;7.64;36.36;101851.53;5047080;28;45316;-82
2022/03/20 01:13:13;;;;;;;;;1.50;1.50;;;;;7.61;35.95;101841.84;5037842;28;45423;-81
2022/03/20 01:15:38;;;;;;;;;2.00;2.00;;;;;7.62;36.26;101848.91;5037117;28;45494;-83
2022/03/20 01:18:04;;;;;;;;;1.00;1.00;;;;;7.57;36.81;101842.66;5036310;28;45403;-82
2022/03/20 01:20:29;;;;;;;;;1.25;0.75;;;;;7.56;36.51;101845.28;5040300;28;45504;-82
2022/03/20 01:22:54;;;;;;;;;1.00;1.00;;;;;7.45;37.08;101826.72;5021392;28;46921;-83
2022/03/20 01:25:20;;;;;;;;;1.50;0.00;;;;;7.49;36.99;101838.19;5036024;28;45372;-82
2022/03/20 01:27:46;;;;;;;;;1.00;1.00;;;;;7.45;37.85;101832.00;5036232;28;45527;-81
2022/03/20 01:30:11;;;;;;;;;2.00;2.00;;;;;7.42;37.54;101831.97;5034959;28;45554;-82
2022/03/20 01:32:36;;;;;;;;;1.50;1.50;;;;;7.37;37.29;101836.28;5035518;28;45423;-83
2022/03/20 01:35:02;;;;;;;;;2.00;2.00;;;;;7.35;37.45;101833.63;5036962;28;45381;-82
2022/03/20 01:37:28;;;;;;;;;4.00;4.00;;;;;7.33;37.42;101823.94;5036919;28;45371;-82
2022/03/20 01:39:54;;;;;;;;;1.00;1.00;;;;;7.29;38.02;101831.81;5047558;28;45479;-83
2022/03/20 01:42:21;;;;;;;;;2.75;2.00;;;;;7.24;37.68;101832.59;5067819;28;45300;-84
2022/03/20 01:44:48;;;;;;;;;3.50;3.50;;;;;7.21;37.60;101822.94;5063040;28;45339;-82
2022/03/20 01:47:13;;;;;;;;;3.50;3.50;;;;;7.22;38.48;101823.81;5047392;28;45382;-83
2022/03/20 01:49:39;;;;;;;;;4.25;1.50;;;;;7.12;38.58;101809.63;5037765;28;45316;-82
2022/03/20 01:52:11;;;;;;;;;4.00;4.00;;;;;7.15;38.46;101820.22;5037857;28;45434;-82
2022/03/20 01:54:49;;;;;;;;;1.50;1.50;;;;;7.11;38.93;101815.78;5017945;28;45372;-83
2022/03/20 01:57:22;;;;;;;;;1.75;1.75;;;;;7.12;39.08;101812.25;5043100;28;45494;-83
2022/03/20 01:59:51;;;;;;;;;1.75;1.75;;;;;7.08;38.93;101816.59;5056534;28;45261;-83
2022/03/20 02:02:18;;;;;;;;;1.75;1.75;;;;;7.05;38.50;101813.06;5056789;28;45478;-82
2022/03/20 02:04:44;;;;;;;;;4.75;2.00;;;;;7.00;39.06;101797.22;5055852;28;45396;-81
2022/03/20 02:07:10;;;;;;;;;1.25;1.00;;;;;7.01;39.83;101798.09;5057434;28;45399;-82
2022/03/20 02:09:37;;;;;;;;;2.00;1.00;;;;;6.97;39.86;101796.28;5042842;28;45371;-83
2022/03/20 02:12:03;;;;;;;;;2.75;1.75;;;;;6.98;39.63;101801.56;5039609;28;45348;-82
2022/03/20 02:14:28;;;;;;;;;2.00;2.00;;;;;6.92;40.16;101799.75;5036979;28;45408;-82
2022/03/20 02:16:55;;;;;;;;;1.50;1.50;;;;;6.85;40.46;101787.38;5038021;28;45452;-82
2022/03/20 02:19:21;;;;;;;;;2.00;2.00;;;;;6.88;40.84;101781.28;5021148;28;45593;-82
2022/03/20 02:21:48;;;;;;;;;1.00;1.00;;;;;6.84;40.29;101790.84;5052352;28;45503;-82
2022/03/20 02:24:43;;;;;;;;;3.50;1.50;;;;;6.84;41.11;101780.34;5037979;28;45443;-82
2022/03/20 02:27:22;;;;;;;;;3.00;3.00;;;;;6.81;40.38;101782.91;5035968;28;45435;-82
2022/03/20 02:29:59;;;;;;;;;2.00;2.00;;;;;6.80;41.16;101782.91;5035445;28;45639;-83
2022/03/20 02:32:30;;;;;;;;;2.00;2.00;;;;;6.75;41.30;101773.19;5024391;28;45324;-83
2022/03/20 02:35:01;;;;;;;;;2.00;1.00;;;;;6.72;40.58;101769.66;5036957;28;45388;-83
2022/03/20 02:37:28;;;;;;;;;5.00;4.00;;;;;6.70;40.92;101768.75;5036588;28;45539;-81
2022/03/20 02:40:01;;;;;;;;;2.50;2.00;;;;;6.66;41.51;101759.03;5040763;28;45514;-82
2022/03/20 02:42:27;;;;;;;;;5.50;3.00;;;;;6.60;41.45;101753.69;5052149;28;45567;-83
2022/03/20 02:45:00;;;;;;;;;3.50;3.50;;;;;6.58;41.39;101767.69;5038669;28;45625;-82
2022/03/20 02:47:33;;;;;;;;;3.00;3.00;;;;;6.58;41.81;101762.44;5038463;28;45540;-77
2022/03/20 02:50:09;;;;;;;;;3.50;2.00;;;;;6.58;41.47;101770.31;5050044;28;45465;-76
2022/03/20 02:52:49;;;;;;;;;4.50;2.00;;;;;6.56;42.50;101764.16;5032019;28;46364;-77
2022/03/20 02:55:36;;;;;;;;;2.00;2.00;;;;;6.53;42.46;101766.75;5032836;28;45506;-76
2022/03/20 02:58:05;;;;;;;;;4.00;1.50;;;;;6.49;42.76;101764.03;5032391;28;45445;-75
2022/03/20 03:00:32;;;;;;;;;3.50;3.50;;;;;6.46;42.33;101771.88;5037522;28;45412;-76
2022/03/20 03:02:59;;;;;;;;;2.50;2.50;;;;;6.43;43.18;101767.44;5033780;28;45750;-77
2022/03/20 03:05:26;;;;;;;;;4.00;2.50;;;;;6.39;42.46;101756.03;5033707;28;45399;-77
2022/03/20 03:13:36;;;;;;;;;7.00;4.00;;;;;6.28;43.39;101756.69;5031199;28;45523;-75
2022/03/20 03:16:04;;;;;;;;;3.00;2.50;;;;;6.23;43.98;101749.63;5033959;28;45388;-76
2022/03/20 03:18:30;;;;;;;;;1.75;1.75;;;;;6.20;44.19;101749.56;5033580;28;45425;-76
2022/03/20 03:20:56;;;;;;;;;2.50;2.50;;;;;6.18;44.50;101747.78;5044007;28;45387;-75
2022/03/20 03:23:21;;;;;;;;;4.50;4.50;;;;;6.16;45.03;101739.88;5018771;28;45400;-76
2022/03/20 03:25:47;;;;;;;;;4.25;4.00;;;;;6.12;45.25;101747.66;5012790;28;45404;-76
2022/03/20 03:28:13;;;;;;;;;7.75;7.00;;;;;6.06;44.63;101735.34;5044575;28;45517;-75
2022/03/20 03:30:45;;;;;;;;;6.25;4.75;;;;;6.00;45.19;101737.88;5049209;28;45547;-76
2022/03/20 03:33:12;;;;;;;;;9.00;7.25;;;;;5.95;45.90;101742.09;5033143;28;45413;-76
2022/03/20 03:35:41;;;;;;;;;12.00;8.50;;;;;5.88;46.05;101736.75;5015528;28;45446;-76
2022/03/20 03:38:08;;;;;;;;;6.50;5.75;;;;;5.86;46.28;101748.97;5032272;28;45632;-75
2022/03/20 03:40:34;;;;;;;;;7.00;7.00;;;;;5.84;46.17;101747.16;5032506;28;45502;-75
2022/03/20 03:42:59;;;;;;;;;6.75;4.00;;;;;5.76;46.69;101733.91;5033044;28;46183;-75
2022/03/20 03:45:25;;;;;;;;;4.75;4.75;;;;;5.72;46.83;101742.56;5033374;28;45490;-75
2022/03/20 03:47:51;;;;;;;;;2.00;1.25;;;;;5.71;47.29;101735.56;5032061;28;45645;-77
2022/03/20 03:50:18;;;;;;;;;7.75;5.00;;;;;5.69;47.18;101746.03;5036860;28;45479;-75
2022/03/20 03:52:44;;;;;;;;;5.50;4.00;;;;;5.63;47.27;101739.78;5037555;28;47027;-76
2022/03/20 03:55:09;;;;;;;;;5.75;5.50;;;;;5.61;46.72;101736.25;5032488;28;45353;-76
2022/03/20 03:57:35;;;;;;;;;6.50;5.50;;;;;5.59;47.12;101735.34;5032194;28;45408;-74
2022/03/20 04:00:00;;;;;;;;;5.25;5.25;;;;;5.58;47.87;101731.81;5034331;28;45464;-75
2022/03/20 04:02:26;;;;;;;;;8.00;7.00;;;;;5.39;47.93;101704.38;5034966;28;46258;-77
2022/03/20 04:04:51;;;;;;;;;7.75;6.50;;;;;5.56;48.24;101738.78;5052697;28;45601;-76
2022/03/20 04:07:18;;;;;;;;;8.00;7.00;;;;;5.56;47.97;101744.03;5053167;28;45458;-77
2022/03/20 04:09:48;;;;;;;;;6.50;6.50;;;;;5.51;48.09;101751.81;5056031;28;45439;-75
2022/03/20 04:12:14;;;;;;;;;6.00;5.00;;;;;5.50;48.08;101744.78;5053827;28;46421;-76
2022/03/20 04:14:43;;;;;;;;;7.50;5.50;;;;;5.48;48.40;101745.59;5056339;28;45380;-75
2022/03/20 04:17:10;;;;;;;;;3.00;3.00;;;;;5.45;48.65;101745.53;5056492;28;45430;-75
2022/03/20 04:19:36;;;;;;;;;8.75;5.00;;;;;5.46;48.66;101742.94;5054937;28;45392;-76
2022/03/20 04:22:01;;;;;;;;;4.75;4.25;;;;;5.42;48.97;101742.88;5054850;28;45499;-76
2022/03/20 04:24:28;;;;;;;;;6.50;6.50;;;;;5.39;49.05;101750.66;5055764;28;45472;-76
2022/03/20 04:26:54;;;;;;;;;6.50;4.50;;;;;5.40;48.99;101739.34;5054735;28;45408;-76
2022/03/20 04:29:22;;;;;;;;;7.25;6.50;;;;;5.41;49.19;101751.59;5055727;28;45469;-76
2022/03/20 04:31:48;;;;;;;;;7.00;5.00;;;;;5.37;49.10;101745.41;5054742;28;46450;-75
2022/03/20 04:34:14;;;;;;;;;7.25;7.25;;;;;5.37;49.30;101739.28;5036296;28;45566;-76
2022/03/20 04:36:39;;;;;;;;;7.00;7.00;;;;;5.34;49.47;101732.22;5035734;28;45526;-75
2022/03/20 04:39:05;;;;;;;;;9.00;7.00;;;;;5.26;49.86;101725.97;5034944;28;45519;-76
2022/03/20 04:41:30;;;;;;;;;5.50;5.50;;;;;5.23;50.20;101718.91;5047124;28;45426;-75
2022/03/20 04:43:56;;;;;;;;;7.00;7.00;;;;;5.23;49.83;101725.91;5048860;28;45552;-76
2022/03/20 04:46:22;;;;;;;;;5.00;5.00;;;;;5.26;50.02;101721.59;5018168;28;45340;-76
2022/03/20 04:59:44;;;;;;;;;11.75;11.75;;;;;5.14;50.69;101724.84;5035266;28;45403;-75
2022/03/20 05:02:10;;;;;;;;;10.00;10.00;;;;;5.15;50.53;101721.38;5048380;28;45893;-76
2022/03/20 05:04:37;;;;;;;;;12.75;8.00;;;;;5.13;50.99;101720.47;5035400;28;45464;-76
2022/03/20 05:07:03;;;;;;;;;10.00;8.50;;;;;5.09;52.05;101726.50;5035190;28;45371;-75
2022/03/20 05:14:57;;;;;;;;;11.50;9.25;;;;;5.05;51.75;101722.03;5052177;28;45343;-75
2022/03/20 05:17:22;;;;;;;;;12.00;8.75;;;;;5.05;51.63;101718.53;5037413;28;45539;-75
2022/03/20 05:19:47;;;;;;;;;9.00;8.00;;;;;5.05;51.60;101718.53;5037620;28;45590;-75
2022/03/20 05:22:13;;;;;;;;;8.00;8.00;;;;;5.02;51.55;101713.22;5037020;28;50085;-76
2022/03/20 05:24:39;;;;;;;;;8.75;7.75;;;;;4.99;51.80;101721.91;5034197;28;45419;-75
2022/03/20 05:27:05;;;;;;;;;7.50;7.00;;;;;4.98;52.08;101722.78;5035014;28;45409;-76
2022/03/20 05:29:32;;;;;;;;;8.00;8.00;;;;;4.96;52.03;101727.97;5034843;28;45379;-76
2022/03/20 05:31:58;;;;;;;;;10.50;8.50;;;;;4.90;52.25;101719.97;5048371;28;46501;-74
2022/03/20 05:34:24;;;;;;;;;9.25;8.00;;;;;4.90;52.33;101714.72;5047302;28;45580;-76
2022/03/20 05:36:51;;;;;;;;;2.50;1.50;;;;;4.90;52.65;101729.56;5034024;28;45391;-76
2022/03/20 05:39:16;;;;;;;;;11.50;8.00;;;;;4.86;52.38;101720.78;5044185;28;45394;-75
2022/03/20 05:41:48;;;;;;;;;11.00;9.00;;;;;4.86;52.49;101717.25;5052048;28;46446;-84
2022/03/20 05:44:16;;;;;;;;;8.00;7.00;;;;;4.79;52.79;101713.63;5063067;28;45485;-82
2022/03/20 05:46:49;;;;;;;;;5.50;4.75;;;;;4.80;52.59;101721.50;5048732;28;45406;-82
2022/03/20 05:49:21;;;;;;;;;8.00;7.75;;;;;4.79;53.08;101711.88;5048842;28;45460;-82
2022/03/20 05:51:47;;;;;;;;;3.50;3.50;;;;;4.76;52.98;101709.19;5038020;28;48278;-82
2022/03/20 05:54:15;;;;;;;;;7.25;6.75;;;;;4.78;52.90;101715.38;5035931;28;45360;-82
2022/03/20 05:59:25;;;;;;;;;7.50;7.50;;;;;4.75;53.13;101717.91;5035830;28;45485;-83
2022/03/20 06:01:51;;;;;;;;;12.25;8.50;;;;;4.73;53.47;101711.75;5036797;28;46261;-82
2022/03/20 06:04:18;;;;;;;;;8.50;7.50;;;;;4.82;53.40;101715.44;5039235;28;45479;-82
2022/03/20 06:06:44;;;;;;;;;8.50;7.50;;;;;5.01;53.03;101711.44;5018759;28;45415;-81
2022/03/20 06:09:10;;;;;;;;;10.50;9.00;;;;;5.25;52.34;101711.06;5035231;28;45504;-83
2022/03/20 06:11:36;;;;;;;;;10.00;9.00;;;;;5.55;51.83;101712.53;5035978;28;45400;-84
2022/03/20 06:14:04;;;;;;;;;10.00;8.00;;;;;5.87;50.72;101718.34;5036519;28;45377;-83
2022/03/20 06:16:31;;;;;;;;;2.50;2.00;;;;;6.18;50.33;101724.13;5037909;28;45387;-81
2022/03/20 06:18:57;;;;;;;;;9.00;9.00;;;;;6.64;49.33;101710.84;5043553;28;45402;-83
2022/03/20 06:21:23;;;;;;;;;8.25;5.25;;;;;7.11;48.47;101716.72;5035593;28;46395;-82
2022/03/20 06:23:49;;;;;;;;;22.00;11.25;;;;;7.44;47.29;101720.63;5037075;28;45356;-85
2022/03/20 06:26:17;;;;;;;;;10.75;10.75;;;;;7.94;46.47;101721.09;5036220;28;45456;-83
2022/03/20 06:28:42;;;;;;;;;12.00;11.00;;;;;8.45;45.65;101718.94;5035985;28;45381;-83
2022/03/20 06:31:12;;;;;;;;;10.75;9.00;;;;;8.89;43.63;101710.41;5034419;28;46148;-82
2022/03/20 06:33:37;;;;;;;;;2.00;2.00;;;;;9.43;43.30;101719.41;5035622;28;45379;-83
2022/03/20 06:36:04;;;;;;;;;9.50;9.50;;;;;9.87;42.35;101727.41;5039098;28;44835;-82
2022/03/20 06:38:30;;;;;;;;;10.50;10.50;;;;;10.37;41.06;101718.66;5047585;28;45367;-82
2022/03/20 06:40:56;;;;;;;;;8.25;8.25;;;;;10.69;40.17;101715.09;5047948;28;45302;-83
2022/03/20 06:43:21;;;;;;;;;19.50;13.50;;;;;11.02;39.67;101721.13;5059748;28;45552;-82
2022/03/20 06:45:46;;;;;;;;;10.75;9.00;;;;;11.60;38.58;101722.63;5044150;28;45481;-83
2022/03/20 06:48:12;;;;;;;;;9.25;9.25;;;;;12.12;37.57;101734.66;5021248;28;45374;-82
2022/03/20 06:50:37;;;;;;;;;3.00;3.00;;;;;12.69;36.71;101731.47;5041779;28;45918;-82
2022/03/20 06:53:04;;;;;;;;;14.25;12.00;;;;;13.18;35.41;101735.38;5045286;28;45490;-83
2022/03/20 06:55:30;;;;;;;;;13.25;13.25;;;;;13.55;35.17;101726.91;5039338;28;45549;-83
2022/03/20 06:58:00;;;;;;;;;12.00;11.25;;;;;13.84;34.43;101730.94;5018746;28;45401;-80
2022/03/20 07:00:28;;;;;;;;;11.25;9.50;;;;;14.32;33.91;101727.50;5049415;28;46491;-83
2022/03/20 07:02:54;;;;;;;;;11.75;11.75;;;;;14.28;33.08;101729.31;5037785;28;45505;-84
2022/03/20 07:05:19;;;;;;;;;10.00;7.25;;;;;14.49;32.66;101732.53;5021870;28;45603;-82
2022/03/20 07:07:45;;;;;;;;;17.25;13.00;;;;;14.95;32.95;101731.66;5037198;28;45424;-83
2022/03/20 07:10:13;;;;;;;;;14.50;11.50;;;;;15.60;31.75;101733.84;5048266;28;46295;-83
2022/03/20 07:12:38;;;;;;;;;13.50;12.25;;;;;16.08;31.16;101734.53;5050970;28;45417;-84
2022/03/20 07:15:04;;;;;;;;;12.50;12.50;;;;;16.65;30.44;101738.41;5044652;28;45738;-84
2022/03/20 07:17:30;;;;;;;;;16.25;13.25;;;;;16.92;29.58;101727.94;5038543;28;45542;-84
2022/03/20 07:19:55;;;;;;;;;13.00;13.00;;;;;16.66;29.37;101742.84;5040445;28;46236;-82
2022/03/20 07:22:23;;;;;;;;;15.00;14.00;;;;;16.91;29.49;101743.06;5040209;28;45380;-84
2022/03/20 07:24:49;;;;;;;;;16.25;14.00;;;;;17.39;28.68;101734.53;5036955;28;45588;-84
2022/03/20 07:29:58;;;;;;;;;17.25;14.00;;;;;17.65;28.01;101730.19;5035425;28;45774;-84
2022/03/20 07:32:23;;;;;;;;;14.75;10.00;;;;;17.94;27.88;101721.25;5034091;28;45442;-82
2022/03/20 07:34:49;;;;;;;;;15.00;15.00;;;;;18.06;27.91;101733.38;5017450;28;45335;-83
2022/03/20 07:37:17;;;;;;;;;18.25;16.75;;;;;18.08;27.33;101730.63;5035989;28;45417;-82
2022/03/20 07:39:44;;;;;;;;;14.00;13.75;;;;;18.33;27.35;101737.84;5036099;28;45375;-82
2022/03/20 07:42:09;;;;;;;;;18.75;16.50;;;;;18.70;26.88;101704.44;5048315;28;45364;-81
2022/03/20 07:44:36;;;;;;;;;17.50;17.50;;;;;19.11;26.29;101731.53;5052922;28;45395;-83
2022/03/20 07:47:03;;;;;;;;;15.00;14.00;;;;;19.04;26.12;101738.03;5023947;28;45340;-82
2022/03/20 07:49:29;;;;;;;;;14.25;13.00;;;;;19.23;26.76;101731.06;5040106;28;45439;-81
2022/03/20 07:51:57;;;;;;;;;14.25;14.25;;;;;19.42;25.96;101730.34;5022258;28;45477;-81
2022/03/20 07:54:23;;;;;;;;;16.00;15.50;;;;;19.84;25.45;101727.81;5038115;28;45551;-83
2022/03/20 07:56:48;;;;;;;;;14.75;14.25;;;;;20.05;25.37;101728.72;5040759;28;45406;-87
2022/03/20 07:59:16;;;;;;;;;17.50;15.75;;;;;20.50;25.01;101742.09;5021458;28;45676;-79
2022/03/20 08:01:41;;;;;;;;;20.00;16.50;;;;;20.42;24.40;101740.59;5041670;28;45308;-76
2022/03/20 08:04:06;;;;;;;;;16.50;14.75;;;;;20.59;24.56;101730.94;5040033;28;45390;-77
2022/03/20 08:06:32;;;;;;;;;16.25;16.00;;;;;21.07;24.86;101731.50;5024668;28;45514;-80
2022/03/20 08:09:00;;;;;;;;;21.75;20.50;;;;;21.03;24.17;101714.66;5024530;28;46047;-77
2022/03/20 08:11:30;;;;;;;;;24.00;20.00;;;;;21.09;24.05;101717.06;5046718;28;45406;-78
2022/03/20 08:13:57;;;;;;;;;23.50;18.75;;;;;21.23;24.12;101726.31;5027778;28;45360;-82
2022/03/20 08:16:25;;;;;;;;;20.50;18.00;;;;;21.38;24.06;101714.81;5036236;28;45399;-78
2022/03/20 08:18:51;;;;;;;;;23.00;18.00;;;;;21.50;23.70;101724.16;5036782;28;45474;-77
2022/03/20 08:21:17;;;;;;;;;24.00;22.25;;;;;21.19;23.70;101719.31;5036202;28;45485;-78
2022/03/20 08:23:42;;;;;;;;;24.50;21.00;;;;;21.04;23.70;101732.50;5024400;28;45681;-80
2022/03/20 08:26:09;;;;;;;;;22.50;20.75;;;;;21.26;23.87;101727.03;5043481;28;45519;-82
2022/03/20 08:28:39;;;;;;;;;20.25;20.00;;;;;21.62;23.20;101728.06;5026587;28;46635;-81
2022/03/20 08:31:06;;;;;;;;;21.50;20.50;;;;;21.88;23.11;101713.34;5039574;28;45389;-83
2022/03/20 08:33:32;;;;;;;;;24.75;22.50;;;;;22.25;23.62;101716.00;5048129;28;45496;-79
2022/03/20 08:35:58;;;;;;;;;17.25;14.25;;;;;22.31;22.98;101721.09;5038829;28;45617;-81
2022/03/20 08:38:23;;;;;;;;;22.50;20.50;;;;;22.44;22.83;101713.25;5041027;28;45513;-80
2022/03/20 08:40:48;;;;;;;;;23.25;22.25;;;;;22.73;22.44;101727.00;5042196;28;45383;-79
2022/03/20 08:43:15;;;;;;;;;22.00;20.00;;;;;22.84;22.73;101719.22;5039597;28;45498;-80
2022/03/20 08:45:41;;;;;;;;;21.75;20.50;;;;;22.50;22.27;101729.97;5044853;28;45477;-80
2022/03/20 08:48:08;;;;;;;;;23.50;21.00;;;;;22.76;22.37;101718.75;5019490;28;47687;-81
2022/03/20 08:50:33;;;;;;;;;18.50;14.50;;;;;23.09;22.55;101729.56;5034900;28;45481;-75
2022/03/20 08:52:59;;;;;;;;;17.50;17.50;;;;;23.55;21.34;101724.31;5013678;28;45545;-76
2022/03/20 08:55:24;;;;;;;;;30.50;26.50;;;;;23.67;20.82;101729.97;5018328;28;46616;-76
2022/03/20 08:57:54;;;;;;;;;28.00;21.25;;;;;23.38;22.11;101729.78;5035470;28;46385;-78
2022/03/20 09:00:22;;;;;;;;;25.75;24.25;;;;;23.64;21.08;101728.34;5032037;28;45593;-76
2022/03/20 09:02:50;;;;;;;;;26.75;24.25;;;;;23.68;21.16;101734.41;5043830;28;45518;-82
2022/03/20 09:05:16;;;;;;;;;25.25;23.25;;;;;23.48;21.53;101740.94;5038187;28;45593;-81
2022/03/20 09:07:43;;;;;;;;;27.00;25.00;;;;;23.58;20.94;101743.03;5054063;28;46304;-82
2022/03/20 09:10:09;;;;;;;;;21.25;20.75;;;;;23.79;21.52;101745.44;5055239;28;45305;-81
2022/03/20 09:12:37;;;;;;;;;23.50;23.50;;;;;23.82;21.37;101742.56;5047342;28;45435;-82
2022/03/20 09:15:12;;;;;;;;;27.50;26.00;;;;;23.90;20.85;101748.44;5035364;28;45446;-83
2022/03/20 09:20:24;;;;;;;;;31.00;25.25;;;;;23.60;20.68;101751.91;5015186;28;45456;-80
2022/03/20 09:22:50;;;;;;;;;25.25;24.25;;;;;23.43;20.81;101746.59;5033841;28;45414;-81
2022/03/20 09:25:15;;;;;;;;;25.75;24.50;;;;;23.82;21.49;101750.66;5041073;28;45411;-82
2022/03/20 09:27:41;;;;;;;;;29.50;27.50;;;;;24.02;20.45;101754.06;5054712;28;46075;-82
2022/03/20 09:30:07;;;;;;;;;22.50;22.25;;;;;24.20;20.91;101747.63;5059247;28;45344;-81
2022/03/20 09:32:33;;;;;;;;;24.00;22.75;;;;;23.78;20.54;101754.53;5042922;28;45395;-80
2022/03/20 09:34:59;;;;;;;;;25.75;22.00;;;;;23.85;20.46;101755.91;5036301;28;45536;-81
2022/03/20 09:37:24;;;;;;;;;24.75;22.25;;;;;24.18;20.92;101745.97;5035546;28;45574;-81
2022/03/20 09:39:50;;;;;;;;;19.75;19.75;;;;;24.37;20.58;101756.53;5019374;28;45322;-81
2022/03/20 09:42:18;;;;;;;;;21.00;21.00;;;;;24.37;20.24;101745.72;5041248;28;45419;-81
2022/03/20 09:44:44;;;;;;;;;24.25;24.25;;;;;24.22;20.59;101740.28;5035817;28;45475;-81
2022/03/20 09:47:11;;;;;;;;;23.75;21.75;;;;;24.28;20.73;101737.22;5034396;28;46271;-81
2022/03/20 09:49:37;;;;;;;;;28.50;26.00;;;;;24.71;20.87;101743.72;5034310;28;45410;-82
2022/03/20 09:52:06;;;;;;;;;26.00;22.00;;;;;24.89;20.72;101731.75;5034801;28;45466;-82
2022/03/20 09:54:31;;;;;;;;;23.50;23.25;;;;;24.82;19.72;101741.22;5038287;28;45530;-82
2022/03/20 09:56:57;;;;;;;;;30.00;29.00;;;;;24.54;20.29;101726.66;5037712;28;45515;-81
2022/03/20 09:59:22;;;;;;;;;28.50;25.00;;;;;24.21;20.17;101734.97;5034572;28;45395;-81
2022/03/20 10:01:49;;;;;;;;;22.25;22.00;;;;;24.25;19.95;101734.69;5037194;28;45582;-81
2022/03/20 10:04:16;;;;;;;;;27.00;24.25;;;;;24.40;20.26;101735.63;5053977;28;45629;-81
2022/03/20 10:06:42;;;;;;;;;26.75;22.50;;;;;24.56;20.37;101740.94;5038744;28;45998;-83
2022/03/20 10:09:13;;;;;;;;;27.50;21.25;;;;;24.40;20.19;101741.03;5035680;28;45451;-81
2022/03/20 10:11:46;;;;;;;;;25.00;25.00;;;;;24.36;21.21;101741.28;5035870;28;45419;-82
2022/03/20 10:14:23;;;;;;;;;27.25;24.75;;;;;24.67;20.06;101743.03;5055410;28;45404;-81
2022/03/20 10:17:07;;;;;;;;;27.00;22.25;;;;;24.87;19.63;101741.81;5054442;28;45466;-82
2022/03/20 10:19:33;;;;;;;;;18.00;17.00;;;;;25.01;19.84;101740.94;5055210;28;45403;-82
2022/03/20 10:22:01;;;;;;;;;25.50;23.00;;;;;25.05;19.68;101738.91;5050294;28;45440;-81
2022/03/20 10:24:30;;;;;;;;;28.50;25.25;;;;;24.76;19.67;101747.84;5037839;28;45530;-82
2022/03/20 10:26:58;;;;;;;;;20.00;18.75;;;;;24.77;19.28;101746.03;5021667;28;46385;-82
2022/03/20 10:29:24;;;;;;;;;21.25;19.50;;;;;24.69;19.57;101745.63;5056556;28;45261;-81
2022/03/20 10:31:51;;;;;;;;;20.00;19.25;;;;;24.62;19.63;101746.00;5062695;28;45517;-81
2022/03/20 10:34:17;;;;;;;;;21.50;19.25;;;;;24.54;19.31;101733.91;5055437;28;45320;-81
2022/03/20 10:36:43;;;;;;;;;24.50;22.50;;;;;24.52;19.34;101743.94;5036781;28;45487;-82
2022/03/20 10:39:19;;;;;;;;;25.50;23.00;;;;;24.69;19.32;101745.63;5049822;28;45440;-82
2022/03/20 10:41:52;;;;;;;;;18.00;16.50;;;;;24.78;18.88;101745.94;5055891;28;45338;-82
2022/03/20 10:44:27;;;;;;;;;23.25;20.00;;;;;24.59;19.08;101746.19;5055469;28;45331;-81
2022/03/20 10:47:09;;;;;;;;;18.50;17.25;;;;;24.46;18.70;101743.34;5023326;28;48105;-80
2022/03/20 10:49:35;;;;;;;;;20.75;18.75;;;;;24.23;18.29;101744.72;5039607;28;45545;-81
2022/03/20 10:52:18;;;;;;;;;21.75;18.25;;;;;24.01;19.15;101741.56;5032606;28;45554;-82
2022/03/20 10:54:52;;;;;;;;;19.00;16.75;;;;;23.73;18.00;101751.19;5018766;28;45555;-83
2022/03/20 10:57:17;;;;;;;;;19.75;16.25;;;;;23.25;19.00;101737.69;5040709;28;45372;-82
2022/03/20 10:59:55;;;;;;;;;19.25;18.75;;;;;23.08;19.06;101743.97;5034889;28;45503;-81
2022/03/20 11:02:23;;;;;;;;;19.00;16.25;;;;;23.28;19.22;101733.97;5034035;28;45440;-81
2022/03/20 11:04:49;;;;;;;;;13.75;12.50;;;;;23.26;18.37;101739.44;5033685;28;45418;-81
2022/03/20 11:07:17;;;;;;;;;14.50;13.00;;;;;23.22;18.34;101738.72;5052172;28;46203;-82
2022/03/20 11:09:50;;;;;;;;;6.50;3.75;;;;;22.89;18.27;101730.63;5053005;28;45387;-82
2022/03/20 11:12:25;;;;;;;;;14.25;14.25;;;;;22.83;18.06;101718.34;5055163;28;45423;-83
2022/03/20 11:14:54;;;;;;;;;16.00;14.25;;;;;23.33;17.74;101737.28;5036976;28;45620;-82
2022/03/20 11:17:23;;;;;;;;;14.25;12.25;;;;;23.45;17.68;101728.50;5039231;28;45553;-81
2022/03/20 11:19:52;;;;;;;;;18.00;14.50;;;;;23.31;18.10;101731.09;5037237;28;45531;-81
2022/03/20 11:22:20;;;;;;;;;15.00;13.75;;;;;22.88;18.58;101727.06;5038289;28;45476;-82
2022/03/20 11:24:48;;;;;;;;;15.25;14.25;;;;;23.02;19.00;101728.16;5038616;28;45477;-82
2022/03/20 11:27:26;;;;;;;;;15.00;15.00;;;;;23.06;18.43;101735.09;5041851;28;46051;-80
2022/03/20 11:30:01;;;;;;;;;12.50;12.50;;;;;23.33;17.73;101734.56;5059600;28;45398;-82
2022/03/20 11:32:27;;;;;;;;;15.00;13.25;;;;;23.03;17.91;101728.06;5058502;28;45384;-81
2022/03/20 11:34:54;;;;;;;;;13.75;13.00;;;;;22.63;17.80;101738.25;5058166;28;45467;-81
2022/03/20 11:37:19;;;;;;;;;14.25;12.75;;;;;22.62;19.02;101728.44;5057496;28;46227;-81
2022/03/20 11:40:07;;;;;;;;;20.75;14.00;;;;;22.89;18.74;101734.16;5039735;28;45471;-82
2022/03/20 11:42:33;;;;;;;;;20.75;17.25;;;;;23.22;18.94;101722.53;5038050;28;45503;-82
2022/03/20 11:45:07;;;;;;;;;14.50;14.50;;;;;23.47;17.92;101729.25;5019550;28;45385;-81
2022/03/20 11:47:54;;;;;;;;;19.50;15.25;;;;;23.43;17.59;101733.09;5037905;28;45504;-81
2022/03/20 11:50:21;;;;;;;;;11.00;11.00;;;;;22.82;18.18;101727.41;5037164;28;45393;-81
2022/03/20 11:53:00;;;;;;;;;16.00;13.50;;;;;22.26;18.68;101728.47;5035843;28;45401;-77